sensor_id;sensor_type;location;lat;lon;timestamp;P1;durP1;ratioP1;P2;durP2;ratioP2
43650;SDS011;29247;50.944;5.382;2022-12-18T00:01:18;60.20;;;19.02;;
43650;SDS011;29247;50.944;5.382;2022-12-18T00:03:46;50.47;;;19.63;;
43650;SDS011;29247;50.944;5.382;2022-12-18T00:06:15;45.00;;;18.33;;
43650;SDS011;29247;50.944;5.382;2022-12-18T00:08:42;43.13;;;18.90;;
43650;SDS011;29247;50.944;5.382;2022-12-18T00:11:12;51.58;;;20.73;;
43650;SDS011;29247;50.944;5.382;2022-12-18T00:13:44;51.58;;;20.65;;
43650;SDS011;29247;50.944;5.382;2022-12-18T00:16:11;64.85;;;25.48;;
43650;SDS011;29247;50.944;5.382;2022-12-18T00:18:40;57.35;;;22.10;;
43650;SDS011;29247;50.944;5.382;2022-12-18T00:21:06;52.13;;;21.33;;
43650;SDS011;29247;50.944;5.382;2022-12-18T00:23:36;51.55;;;20.42;;
43650;SDS011;29247;50.944;5.382;2022-12-18T00:26:03;51.15;;;20.27;;
43650;SDS011;29247;50.944;5.382;2022-12-18T00:28:31;46.80;;;20.20;;
43650;SDS011;29247;50.944;5.382;2022-12-18T00:33:30;47.63;;;18.33;;
43650;SDS011;29247;50.944;5.382;2022-12-18T00:36:03;43.80;;;18.45;;
43650;SDS011;29247;50.944;5.382;2022-12-18T00:38:42;36.60;;;16.80;;
43650;SDS011;29247;50.944;5.382;2022-12-18T00:41:12;41.53;;;17.05;;
43650;SDS011;29247;50.944;5.382;2022-12-18T00:43:59;49.88;;;17.63;;
43650;SDS011;29247;50.944;5.382;2022-12-18T00:46:25;45.42;;;18.83;;
43650;SDS011;29247;50.944;5.382;2022-12-18T00:48:50;37.70;;;16.58;;
43650;SDS011;29247;50.944;5.382;2022-12-18T00:51:16;38.85;;;16.35;;
43650;SDS011;29247;50.944;5.382;2022-12-18T00:53:42;44.97;;;17.27;;
43650;SDS011;29247;50.944;5.382;2022-12-18T00:56:10;41.13;;;17.88;;
43650;SDS011;29247;50.944;5.382;2022-12-18T00:58:35;46.47;;;17.38;;
43650;SDS011;29247;50.944;5.382;2022-12-18T01:01:03;37.58;;;16.52;;
43650;SDS011;29247;50.944;5.382;2022-12-18T01:03:31;37.90;;;14.98;;
43650;SDS011;29247;50.944;5.382;2022-12-18T01:05:57;45.53;;;17.58;;
43650;SDS011;29247;50.944;5.382;2022-12-18T01:08:23;41.83;;;17.38;;
43650;SDS011;29247;50.944;5.382;2022-12-18T01:10:49;37.83;;;16.75;;
43650;SDS011;29247;50.944;5.382;2022-12-18T01:13:15;39.03;;;15.35;;
43650;SDS011;29247;50.944;5.382;2022-12-18T01:15:47;37.10;;;16.70;;
43650;SDS011;29247;50.944;5.382;2022-12-18T01:18:18;47.08;;;18.05;;
43650;SDS011;29247;50.944;5.382;2022-12-18T01:20:48;44.05;;;19.67;;
43650;SDS011;29247;50.944;5.382;2022-12-18T01:23:14;43.67;;;16.30;;
43650;SDS011;29247;50.944;5.382;2022-12-18T01:25:39;39.08;;;17.48;;
43650;SDS011;29247;50.944;5.382;2022-12-18T01:28:05;41.03;;;16.42;;
43650;SDS011;29247;50.944;5.382;2022-12-18T01:30:32;40.03;;;17.38;;
43650;SDS011;29247;50.944;5.382;2022-12-18T01:32:59;45.35;;;15.60;;
43650;SDS011;29247;50.944;5.382;2022-12-18T01:35:25;32.20;;;15.77;;
43650;SDS011;29247;50.944;5.382;2022-12-18T01:37:54;45.33;;;17.73;;
43650;SDS011;29247;50.944;5.382;2022-12-18T01:40:20;47.50;;;15.95;;
43650;SDS011;29247;50.944;5.382;2022-12-18T01:42:50;33.15;;;14.95;;
43650;SDS011;29247;50.944;5.382;2022-12-18T01:45:22;46.13;;;17.08;;
43650;SDS011;29247;50.944;5.382;2022-12-18T01:47:57;53.63;;;18.73;;
43650;SDS011;29247;50.944;5.382;2022-12-18T01:50:34;38.03;;;16.67;;
43650;SDS011;29247;50.944;5.382;2022-12-18T01:53:07;44.92;;;17.30;;
43650;SDS011;29247;50.944;5.382;2022-12-18T01:55:45;38.10;;;15.10;;
43650;SDS011;29247;50.944;5.382;2022-12-18T01:58:16;40.38;;;17.25;;
43650;SDS011;29247;50.944;5.382;2022-12-18T02:00:43;30.38;;;13.10;;
43650;SDS011;29247;50.944;5.382;2022-12-18T02:03:09;35.22;;;15.63;;
43650;SDS011;29247;50.944;5.382;2022-12-18T02:05:44;31.20;;;14.65;;
43650;SDS011;29247;50.944;5.382;2022-12-18T02:08:22;41.58;;;15.98;;
43650;SDS011;29247;50.944;5.382;2022-12-18T02:11:05;43.28;;;17.77;;
43650;SDS011;29247;50.944;5.382;2022-12-18T02:13:46;41.35;;;17.25;;
43650;SDS011;29247;50.944;5.382;2022-12-18T02:18:47;38.35;;;16.02;;
43650;SDS011;29247;50.944;5.382;2022-12-18T02:24:29;41.67;;;15.70;;
43650;SDS011;29247;50.944;5.382;2022-12-18T02:27:07;38.28;;;15.68;;
43650;SDS011;29247;50.944;5.382;2022-12-18T02:29:40;39.50;;;16.73;;
43650;SDS011;29247;50.944;5.382;2022-12-18T02:32:15;40.72;;;18.38;;
43650;SDS011;29247;50.944;5.382;2022-12-18T02:34:46;38.53;;;15.90;;
43650;SDS011;29247;50.944;5.382;2022-12-18T02:37:16;42.25;;;15.48;;
43650;SDS011;29247;50.944;5.382;2022-12-18T02:39:46;44.45;;;17.05;;
43650;SDS011;29247;50.944;5.382;2022-12-18T02:42:13;36.25;;;15.75;;
43650;SDS011;29247;50.944;5.382;2022-12-18T02:44:46;38.33;;;15.43;;
43650;SDS011;29247;50.944;5.382;2022-12-18T02:47:16;38.17;;;15.60;;
43650;SDS011;29247;50.944;5.382;2022-12-18T02:49:53;42.58;;;15.73;;
43650;SDS011;29247;50.944;5.382;2022-12-18T02:52:48;48.13;;;16.08;;
43650;SDS011;29247;50.944;5.382;2022-12-18T02:58:21;34.88;;;14.85;;
43650;SDS011;29247;50.944;5.382;2022-12-18T03:00:58;39.60;;;15.55;;
43650;SDS011;29247;50.944;5.382;2022-12-18T03:03:35;42.75;;;15.60;;
43650;SDS011;29247;50.944;5.382;2022-12-18T03:06:26;35.65;;;14.75;;
43650;SDS011;29247;50.944;5.382;2022-12-18T03:09:12;38.88;;;15.43;;
43650;SDS011;29247;50.944;5.382;2022-12-18T03:11:45;37.53;;;15.40;;
43650;SDS011;29247;50.944;5.382;2022-12-18T03:14:36;40.20;;;16.40;;
43650;SDS011;29247;50.944;5.382;2022-12-18T03:17:04;34.10;;;14.10;;
43650;SDS011;29247;50.944;5.382;2022-12-18T03:19:38;32.67;;;12.52;;
43650;SDS011;29247;50.944;5.382;2022-12-18T03:22:06;38.38;;;14.75;;
43650;SDS011;29247;50.944;5.382;2022-12-18T03:24:33;30.75;;;14.60;;
43650;SDS011;29247;50.944;5.382;2022-12-18T03:27:02;34.50;;;14.23;;
43650;SDS011;29247;50.944;5.382;2022-12-18T03:29:44;38.55;;;14.55;;
43650;SDS011;29247;50.944;5.382;2022-12-18T03:32:21;35.30;;;14.68;;
43650;SDS011;29247;50.944;5.382;2022-12-18T03:34:51;25.25;;;11.95;;
43650;SDS011;29247;50.944;5.382;2022-12-18T03:37:21;32.88;;;13.05;;
43650;SDS011;29247;50.944;5.382;2022-12-18T03:39:48;30.92;;;13.18;;
43650;SDS011;29247;50.944;5.382;2022-12-18T03:42:15;31.30;;;14.13;;
43650;SDS011;29247;50.944;5.382;2022-12-18T03:47:53;27.63;;;13.55;;
43650;SDS011;29247;50.944;5.382;2022-12-18T03:50:46;30.10;;;13.48;;
43650;SDS011;29247;50.944;5.382;2022-12-18T03:56:01;37.97;;;13.82;;
43650;SDS011;29247;50.944;5.382;2022-12-18T03:58:29;31.95;;;12.68;;
43650;SDS011;29247;50.944;5.382;2022-12-18T04:00:58;32.45;;;13.75;;
43650;SDS011;29247;50.944;5.382;2022-12-18T04:03:28;29.40;;;11.73;;
43650;SDS011;29247;50.944;5.382;2022-12-18T04:05:56;32.50;;;12.38;;
43650;SDS011;29247;50.944;5.382;2022-12-18T04:08:26;24.88;;;11.68;;
43650;SDS011;29247;50.944;5.382;2022-12-18T04:10:52;29.98;;;12.13;;
43650;SDS011;29247;50.944;5.382;2022-12-18T04:13:24;31.90;;;13.40;;
43650;SDS011;29247;50.944;5.382;2022-12-18T04:15:54;27.67;;;11.63;;
43650;SDS011;29247;50.944;5.382;2022-12-18T04:18:22;30.75;;;12.50;;
43650;SDS011;29247;50.944;5.382;2022-12-18T04:20:48;30.95;;;12.85;;
43650;SDS011;29247;50.944;5.382;2022-12-18T04:23:14;26.15;;;12.15;;
43650;SDS011;29247;50.944;5.382;2022-12-18T04:25:40;23.50;;;12.70;;
43650;SDS011;29247;50.944;5.382;2022-12-18T04:28:08;28.48;;;11.23;;
43650;SDS011;29247;50.944;5.382;2022-12-18T04:30:34;27.27;;;10.50;;
43650;SDS011;29247;50.944;5.382;2022-12-18T04:32:59;31.30;;;12.38;;
43650;SDS011;29247;50.944;5.382;2022-12-18T04:35:30;23.50;;;11.32;;
43650;SDS011;29247;50.944;5.382;2022-12-18T04:37:55;26.70;;;12.18;;
43650;SDS011;29247;50.944;5.382;2022-12-18T04:40:21;29.65;;;12.40;;
43650;SDS011;29247;50.944;5.382;2022-12-18T04:42:49;30.17;;;13.68;;
43650;SDS011;29247;50.944;5.382;2022-12-18T04:45:14;26.58;;;11.70;;
43650;SDS011;29247;50.944;5.382;2022-12-18T04:47:42;28.55;;;12.23;;
43650;SDS011;29247;50.944;5.382;2022-12-18T04:50:08;28.83;;;11.32;;
43650;SDS011;29247;50.944;5.382;2022-12-18T04:52:35;28.65;;;11.95;;
43650;SDS011;29247;50.944;5.382;2022-12-18T04:55:01;25.88;;;11.23;;
43650;SDS011;29247;50.944;5.382;2022-12-18T04:57:29;29.23;;;12.32;;
43650;SDS011;29247;50.944;5.382;2022-12-18T04:59:55;24.63;;;11.52;;
43650;SDS011;29247;50.944;5.382;2022-12-18T05:02:23;25.35;;;11.30;;
43650;SDS011;29247;50.944;5.382;2022-12-18T05:04:51;26.25;;;12.18;;
43650;SDS011;29247;50.944;5.382;2022-12-18T05:07:20;26.20;;;11.93;;
43650;SDS011;29247;50.944;5.382;2022-12-18T05:09:47;21.23;;;10.60;;
43650;SDS011;29247;50.944;5.382;2022-12-18T05:12:18;25.75;;;11.13;;
43650;SDS011;29247;50.944;5.382;2022-12-18T05:14:43;29.55;;;11.63;;
43650;SDS011;29247;50.944;5.382;2022-12-18T05:17:11;26.98;;;11.93;;
43650;SDS011;29247;50.944;5.382;2022-12-18T05:19:40;26.55;;;10.80;;
43650;SDS011;29247;50.944;5.382;2022-12-18T05:22:06;21.92;;;11.50;;
43650;SDS011;29247;50.944;5.382;2022-12-18T05:24:33;22.63;;;11.40;;
43650;SDS011;29247;50.944;5.382;2022-12-18T05:26:59;23.20;;;11.90;;
43650;SDS011;29247;50.944;5.382;2022-12-18T05:29:25;24.42;;;11.73;;
43650;SDS011;29247;50.944;5.382;2022-12-18T05:31:56;32.30;;;12.07;;
43650;SDS011;29247;50.944;5.382;2022-12-18T05:34:21;23.85;;;10.93;;
43650;SDS011;29247;50.944;5.382;2022-12-18T05:36:47;25.35;;;11.00;;
43650;SDS011;29247;50.944;5.382;2022-12-18T05:39:13;20.70;;;9.75;;
43650;SDS011;29247;50.944;5.382;2022-12-18T05:41:39;24.10;;;11.30;;
43650;SDS011;29247;50.944;5.382;2022-12-18T05:44:05;19.42;;;10.10;;
43650;SDS011;29247;50.944;5.382;2022-12-18T05:46:31;30.40;;;10.23;;
43650;SDS011;29247;50.944;5.382;2022-12-18T05:48:58;19.10;;;9.43;;
43650;SDS011;29247;50.944;5.382;2022-12-18T05:51:26;16.88;;;9.43;;
43650;SDS011;29247;50.944;5.382;2022-12-18T05:53:54;20.30;;;8.60;;
43650;SDS011;29247;50.944;5.382;2022-12-18T05:56:21;18.27;;;9.20;;
43650;SDS011;29247;50.944;5.382;2022-12-18T05:58:50;14.27;;;7.82;;
43650;SDS011;29247;50.944;5.382;2022-12-18T06:01:22;14.13;;;8.05;;
43650;SDS011;29247;50.944;5.382;2022-12-18T06:03:54;21.20;;;9.32;;
43650;SDS011;29247;50.944;5.382;2022-12-18T06:06:24;21.95;;;8.68;;
43650;SDS011;29247;50.944;5.382;2022-12-18T06:08:52;18.20;;;10.27;;
43650;SDS011;29247;50.944;5.382;2022-12-18T06:11:22;15.27;;;9.47;;
43650;SDS011;29247;50.944;5.382;2022-12-18T06:13:50;20.30;;;8.88;;
43650;SDS011;29247;50.944;5.382;2022-12-18T06:16:19;19.25;;;8.30;;
43650;SDS011;29247;50.944;5.382;2022-12-18T06:18:46;16.65;;;7.70;;
43650;SDS011;29247;50.944;5.382;2022-12-18T06:21:11;21.63;;;9.70;;
43650;SDS011;29247;50.944;5.382;2022-12-18T06:23:38;21.35;;;9.50;;
43650;SDS011;29247;50.944;5.382;2022-12-18T06:26:13;13.13;;;8.20;;
43650;SDS011;29247;50.944;5.382;2022-12-18T06:28:39;18.50;;;8.00;;
43650;SDS011;29247;50.944;5.382;2022-12-18T06:31:05;20.23;;;9.45;;
43650;SDS011;29247;50.944;5.382;2022-12-18T06:33:32;16.70;;;7.68;;
43650;SDS011;29247;50.944;5.382;2022-12-18T06:36:04;17.90;;;8.52;;
43650;SDS011;29247;50.944;5.382;2022-12-18T06:38:32;18.73;;;9.45;;
43650;SDS011;29247;50.944;5.382;2022-12-18T06:40:59;16.52;;;9.20;;
43650;SDS011;29247;50.944;5.382;2022-12-18T06:43:25;16.58;;;9.23;;
43650;SDS011;29247;50.944;5.382;2022-12-18T06:45:57;22.63;;;9.48;;
43650;SDS011;29247;50.944;5.382;2022-12-18T06:48:26;21.08;;;9.40;;
43650;SDS011;29247;50.944;5.382;2022-12-18T06:50:55;15.75;;;8.25;;
43650;SDS011;29247;50.944;5.382;2022-12-18T06:53:23;16.40;;;8.10;;
43650;SDS011;29247;50.944;5.382;2022-12-18T06:55:51;21.45;;;8.73;;
43650;SDS011;29247;50.944;5.382;2022-12-18T06:58:17;12.23;;;7.30;;
43650;SDS011;29247;50.944;5.382;2022-12-18T07:00:47;13.00;;;7.38;;
43650;SDS011;29247;50.944;5.382;2022-12-18T07:03:13;18.30;;;8.98;;
43650;SDS011;29247;50.944;5.382;2022-12-18T07:05:41;13.13;;;7.75;;
43650;SDS011;29247;50.944;5.382;2022-12-18T07:08:07;14.07;;;7.18;;
43650;SDS011;29247;50.944;5.382;2022-12-18T07:10:32;21.42;;;8.73;;
43650;SDS011;29247;50.944;5.382;2022-12-18T07:13:00;13.50;;;6.70;;
43650;SDS011;29247;50.944;5.382;2022-12-18T07:15:26;15.57;;;6.65;;
43650;SDS011;29247;50.944;5.382;2022-12-18T07:17:52;12.85;;;6.18;;
43650;SDS011;29247;50.944;5.382;2022-12-18T07:20:17;20.83;;;8.43;;
43650;SDS011;29247;50.944;5.382;2022-12-18T07:22:48;23.13;;;8.63;;
43650;SDS011;29247;50.944;5.382;2022-12-18T07:25:15;15.25;;;7.95;;
43650;SDS011;29247;50.944;5.382;2022-12-18T07:27:41;16.58;;;7.32;;
43650;SDS011;29247;50.944;5.382;2022-12-18T07:30:07;13.75;;;7.13;;
43650;SDS011;29247;50.944;5.382;2022-12-18T07:32:36;20.25;;;7.05;;
43650;SDS011;29247;50.944;5.382;2022-12-18T07:35:02;16.08;;;7.40;;
43650;SDS011;29247;50.944;5.382;2022-12-18T07:37:30;13.60;;;7.10;;
43650;SDS011;29247;50.944;5.382;2022-12-18T07:39:56;16.55;;;7.70;;
43650;SDS011;29247;50.944;5.382;2022-12-18T07:42:21;14.38;;;6.88;;
43650;SDS011;29247;50.944;5.382;2022-12-18T07:44:55;14.40;;;7.05;;
43650;SDS011;29247;50.944;5.382;2022-12-18T07:47:24;14.80;;;7.93;;
43650;SDS011;29247;50.944;5.382;2022-12-18T07:49:58;14.98;;;7.05;;
43650;SDS011;29247;50.944;5.382;2022-12-18T07:52:23;15.27;;;7.07;;
43650;SDS011;29247;50.944;5.382;2022-12-18T07:54:49;14.10;;;7.40;;
43650;SDS011;29247;50.944;5.382;2022-12-18T07:57:17;19.52;;;7.32;;
43650;SDS011;29247;50.944;5.382;2022-12-18T07:59:43;15.15;;;7.38;;
43650;SDS011;29247;50.944;5.382;2022-12-18T08:02:11;18.33;;;9.10;;
43650;SDS011;29247;50.944;5.382;2022-12-18T08:04:36;18.25;;;7.55;;
43650;SDS011;29247;50.944;5.382;2022-12-18T08:07:05;10.65;;;6.65;;
43650;SDS011;29247;50.944;5.382;2022-12-18T08:09:31;16.27;;;7.53;;
43650;SDS011;29247;50.944;5.382;2022-12-18T08:11:56;14.85;;;7.68;;
43650;SDS011;29247;50.944;5.382;2022-12-18T08:14:22;17.88;;;8.15;;
43650;SDS011;29247;50.944;5.382;2022-12-18T08:16:50;12.20;;;7.57;;
43650;SDS011;29247;50.944;5.382;2022-12-18T08:19:16;12.27;;;7.25;;
43650;SDS011;29247;50.944;5.382;2022-12-18T08:21:45;15.25;;;7.43;;
43650;SDS011;29247;50.944;5.382;2022-12-18T08:24:11;17.00;;;8.88;;
43650;SDS011;29247;50.944;5.382;2022-12-18T08:26:39;13.35;;;7.90;;
43650;SDS011;29247;50.944;5.382;2022-12-18T08:29:05;16.83;;;8.75;;
43650;SDS011;29247;50.944;5.382;2022-12-18T08:31:34;11.30;;;7.45;;
43650;SDS011;29247;50.944;5.382;2022-12-18T08:33:59;16.60;;;8.55;;
43650;SDS011;29247;50.944;5.382;2022-12-18T08:36:25;18.08;;;8.02;;
43650;SDS011;29247;50.944;5.382;2022-12-18T08:38:54;20.10;;;8.30;;
43650;SDS011;29247;50.944;5.382;2022-12-18T08:41:20;17.55;;;8.95;;
43650;SDS011;29247;50.944;5.382;2022-12-18T08:43:48;15.55;;;8.30;;
43650;SDS011;29247;50.944;5.382;2022-12-18T08:46:39;18.25;;;7.78;;
43650;SDS011;29247;50.944;5.382;2022-12-18T08:49:08;16.27;;;8.20;;
43650;SDS011;29247;50.944;5.382;2022-12-18T08:51:37;15.88;;;7.60;;
43650;SDS011;29247;50.944;5.382;2022-12-18T08:54:03;14.95;;;8.55;;
43650;SDS011;29247;50.944;5.382;2022-12-18T08:56:30;15.70;;;7.82;;
43650;SDS011;29247;50.944;5.382;2022-12-18T08:58:58;17.80;;;8.15;;
43650;SDS011;29247;50.944;5.382;2022-12-18T09:01:27;23.73;;;7.82;;
43650;SDS011;29247;50.944;5.382;2022-12-18T09:03:55;17.80;;;8.40;;
43650;SDS011;29247;50.944;5.382;2022-12-18T09:06:23;24.55;;;11.07;;
43650;SDS011;29247;50.944;5.382;2022-12-18T09:08:51;20.42;;;10.80;;
43650;SDS011;29247;50.944;5.382;2022-12-18T09:11:21;25.55;;;11.05;;
43650;SDS011;29247;50.944;5.382;2022-12-18T09:13:49;22.23;;;10.18;;
43650;SDS011;29247;50.944;5.382;2022-12-18T09:16:15;18.55;;;11.00;;
43650;SDS011;29247;50.944;5.382;2022-12-18T09:18:42;20.60;;;10.02;;
43650;SDS011;29247;50.944;5.382;2022-12-18T09:21:16;20.40;;;9.63;;
43650;SDS011;29247;50.944;5.382;2022-12-18T09:23:44;21.08;;;9.13;;
43650;SDS011;29247;50.944;5.382;2022-12-18T09:26:21;22.95;;;9.20;;
43650;SDS011;29247;50.944;5.382;2022-12-18T09:28:48;29.40;;;10.88;;
43650;SDS011;29247;50.944;5.382;2022-12-18T09:31:20;20.10;;;8.93;;
43650;SDS011;29247;50.944;5.382;2022-12-18T09:33:47;22.00;;;10.10;;
43650;SDS011;29247;50.944;5.382;2022-12-18T09:36:17;16.95;;;9.32;;
43650;SDS011;29247;50.944;5.382;2022-12-18T09:38:45;20.70;;;10.25;;
43650;SDS011;29247;50.944;5.382;2022-12-18T09:44:18;19.00;;;9.02;;
43650;SDS011;29247;50.944;5.382;2022-12-18T09:47:04;17.05;;;9.40;;
43650;SDS011;29247;50.944;5.382;2022-12-18T09:49:45;19.55;;;9.25;;
43650;SDS011;29247;50.944;5.382;2022-12-18T09:52:15;24.27;;;10.70;;
43650;SDS011;29247;50.944;5.382;2022-12-18T09:54:46;24.20;;;10.23;;
43650;SDS011;29247;50.944;5.382;2022-12-18T09:57:22;24.08;;;9.68;;
43650;SDS011;29247;50.944;5.382;2022-12-18T10:02:22;13.95;;;7.72;;
43650;SDS011;29247;50.944;5.382;2022-12-18T10:05:14;16.80;;;8.60;;
43650;SDS011;29247;50.944;5.382;2022-12-18T10:07:47;18.65;;;9.10;;
43650;SDS011;29247;50.944;5.382;2022-12-18T10:13:00;19.58;;;9.10;;
43650;SDS011;29247;50.944;5.382;2022-12-18T10:15:36;17.77;;;9.38;;
43650;SDS011;29247;50.944;5.382;2022-12-18T10:18:26;15.38;;;8.13;;
43650;SDS011;29247;50.944;5.382;2022-12-18T10:21:06;19.42;;;9.52;;
43650;SDS011;29247;50.944;5.382;2022-12-18T10:23:47;24.60;;;9.52;;
43650;SDS011;29247;50.944;5.382;2022-12-18T10:26:31;27.55;;;13.13;;
43650;SDS011;29247;50.944;5.382;2022-12-18T10:28:59;19.75;;;9.65;;
43650;SDS011;29247;50.944;5.382;2022-12-18T10:31:26;22.63;;;11.52;;
43650;SDS011;29247;50.944;5.382;2022-12-18T10:33:55;21.00;;;9.43;;
43650;SDS011;29247;50.944;5.382;2022-12-18T10:36:22;18.13;;;8.55;;
43650;SDS011;29247;50.944;5.382;2022-12-18T10:38:49;17.90;;;8.00;;
43650;SDS011;29247;50.944;5.382;2022-12-18T10:43:44;16.52;;;8.35;;
43650;SDS011;29247;50.944;5.382;2022-12-18T10:48:39;17.77;;;9.05;;
43650;SDS011;29247;50.944;5.382;2022-12-18T10:51:24;15.57;;;8.35;;
43650;SDS011;29247;50.944;5.382;2022-12-18T10:53:53;12.48;;;7.53;;
43650;SDS011;29247;50.944;5.382;2022-12-18T10:56:29;17.48;;;8.13;;
43650;SDS011;29247;50.944;5.382;2022-12-18T10:59:09;15.32;;;8.32;;
43650;SDS011;29247;50.944;5.382;2022-12-18T11:01:50;19.92;;;8.57;;
43650;SDS011;29247;50.944;5.382;2022-12-18T11:04:22;23.92;;;8.88;;
43650;SDS011;29247;50.944;5.382;2022-12-18T11:06:53;21.20;;;8.02;;
43650;SDS011;29247;50.944;5.382;2022-12-18T11:09:34;16.67;;;8.43;;
43650;SDS011;29247;50.944;5.382;2022-12-18T11:12:02;19.77;;;7.68;;
43650;SDS011;29247;50.944;5.382;2022-12-18T11:17:21;14.95;;;7.18;;
43650;SDS011;29247;50.944;5.382;2022-12-18T11:19:52;19.13;;;8.65;;
43650;SDS011;29247;50.944;5.382;2022-12-18T11:22:32;16.35;;;7.55;;
43650;SDS011;29247;50.944;5.382;2022-12-18T11:25:01;13.25;;;7.40;;
43650;SDS011;29247;50.944;5.382;2022-12-18T11:27:30;20.58;;;7.78;;
43650;SDS011;29247;50.944;5.382;2022-12-18T11:33:05;20.35;;;8.38;;
43650;SDS011;29247;50.944;5.382;2022-12-18T11:35:53;16.23;;;8.25;;
43650;SDS011;29247;50.944;5.382;2022-12-18T11:38:34;18.15;;;8.38;;
43650;SDS011;29247;50.944;5.382;2022-12-18T11:41:06;16.92;;;8.10;;
43650;SDS011;29247;50.944;5.382;2022-12-18T11:43:48;15.30;;;7.63;;
43650;SDS011;29247;50.944;5.382;2022-12-18T11:46:25;16.40;;;8.40;;
43650;SDS011;29247;50.944;5.382;2022-12-18T11:54:28;20.70;;;9.20;;
43650;SDS011;29247;50.944;5.382;2022-12-18T12:02:44;18.75;;;8.48;;
43650;SDS011;29247;50.944;5.382;2022-12-18T12:16:36;19.00;;;8.95;;
43650;SDS011;29247;50.944;5.382;2022-12-18T12:20:15;17.15;;;7.75;;
43650;SDS011;29247;50.944;5.382;2022-12-18T12:25:25;20.80;;;9.25;;
43650;SDS011;29247;50.944;5.382;2022-12-18T12:28:20;22.35;;;9.07;;
43650;SDS011;29247;50.944;5.382;2022-12-18T12:39:18;21.35;;;9.55;;
43650;SDS011;29247;50.944;5.382;2022-12-18T12:41:48;21.30;;;10.65;;
43650;SDS011;29247;50.944;5.382;2022-12-18T12:44:46;16.83;;;8.63;;
43650;SDS011;29247;50.944;5.382;2022-12-18T12:47:20;20.67;;;8.90;;
43650;SDS011;29247;50.944;5.382;2022-12-18T12:49:55;25.33;;;10.40;;
43650;SDS011;29247;50.944;5.382;2022-12-18T12:52:35;22.52;;;9.75;;
43650;SDS011;29247;50.944;5.382;2022-12-18T12:55:07;26.98;;;10.35;;
43650;SDS011;29247;50.944;5.382;2022-12-18T12:58:08;22.88;;;9.70;;
43650;SDS011;29247;50.944;5.382;2022-12-18T13:00:56;18.83;;;8.93;;
43650;SDS011;29247;50.944;5.382;2022-12-18T13:06:23;25.77;;;10.13;;
43650;SDS011;29247;50.944;5.382;2022-12-18T13:09:12;21.65;;;10.32;;
43650;SDS011;29247;50.944;5.382;2022-12-18T13:11:42;19.23;;;10.82;;
43650;SDS011;29247;50.944;5.382;2022-12-18T13:14:38;23.83;;;11.25;;
43650;SDS011;29247;50.944;5.382;2022-12-18T13:19:50;22.83;;;11.05;;
43650;SDS011;29247;50.944;5.382;2022-12-18T13:22:25;25.35;;;10.93;;
43650;SDS011;29247;50.944;5.382;2022-12-18T13:25:02;29.98;;;12.93;;
43650;SDS011;29247;50.944;5.382;2022-12-18T13:28:00;23.08;;;11.73;;
43650;SDS011;29247;50.944;5.382;2022-12-18T13:38:23;29.20;;;14.00;;
43650;SDS011;29247;50.944;5.382;2022-12-18T13:43:44;27.50;;;11.77;;
43650;SDS011;29247;50.944;5.382;2022-12-18T13:48:55;30.75;;;12.82;;
43650;SDS011;29247;50.944;5.382;2022-12-18T13:51:22;23.17;;;11.38;;
43650;SDS011;29247;50.944;5.382;2022-12-18T13:53:52;22.50;;;11.20;;
43650;SDS011;29247;50.944;5.382;2022-12-18T13:56:32;24.73;;;13.10;;
43650;SDS011;29247;50.944;5.382;2022-12-18T13:59:05;27.75;;;12.43;;
43650;SDS011;29247;50.944;5.382;2022-12-18T14:04:31;24.75;;;11.75;;
43650;SDS011;29247;50.944;5.382;2022-12-18T14:07:02;26.90;;;12.18;;
43650;SDS011;29247;50.944;5.382;2022-12-18T14:09:43;27.35;;;12.65;;
43650;SDS011;29247;50.944;5.382;2022-12-18T14:12:18;28.27;;;12.82;;
43650;SDS011;29247;50.944;5.382;2022-12-18T14:17:53;22.88;;;10.60;;
43650;SDS011;29247;50.944;5.382;2022-12-18T14:20:22;24.10;;;11.40;;
43650;SDS011;29247;50.944;5.382;2022-12-18T14:22:52;25.02;;;12.18;;
43650;SDS011;29247;50.944;5.382;2022-12-18T14:25:23;22.90;;;11.45;;
43650;SDS011;29247;50.944;5.382;2022-12-18T14:30:40;25.10;;;12.15;;
43650;SDS011;29247;50.944;5.382;2022-12-18T14:33:09;24.05;;;12.45;;
43650;SDS011;29247;50.944;5.382;2022-12-18T14:35:40;31.17;;;13.02;;
43650;SDS011;29247;50.944;5.382;2022-12-18T14:41:14;26.63;;;12.65;;
43650;SDS011;29247;50.944;5.382;2022-12-18T14:43:43;24.25;;;11.68;;
43650;SDS011;29247;50.944;5.382;2022-12-18T14:49:02;29.77;;;12.55;;
43650;SDS011;29247;50.944;5.382;2022-12-18T14:51:59;23.63;;;13.05;;
43650;SDS011;29247;50.944;5.382;2022-12-18T14:54:27;30.63;;;14.15;;
43650;SDS011;29247;50.944;5.382;2022-12-18T14:57:05;27.60;;;14.38;;
43650;SDS011;29247;50.944;5.382;2022-12-18T14:59:41;27.90;;;14.43;;
43650;SDS011;29247;50.944;5.382;2022-12-18T15:02:18;23.80;;;12.98;;
43650;SDS011;29247;50.944;5.382;2022-12-18T15:05:00;25.38;;;13.20;;
43650;SDS011;29247;50.944;5.382;2022-12-18T15:07:33;31.05;;;13.52;;
43650;SDS011;29247;50.944;5.382;2022-12-18T15:10:11;25.90;;;13.07;;
43650;SDS011;29247;50.944;5.382;2022-12-18T15:18:01;30.13;;;14.35;;
43650;SDS011;29247;50.944;5.382;2022-12-18T15:20:30;25.15;;;13.30;;
43650;SDS011;29247;50.944;5.382;2022-12-18T15:23:00;30.48;;;14.52;;
43650;SDS011;29247;50.944;5.382;2022-12-18T15:25:31;26.67;;;13.73;;
43650;SDS011;29247;50.944;5.382;2022-12-18T15:28:03;30.70;;;14.95;;
43650;SDS011;29247;50.944;5.382;2022-12-18T15:30:40;29.77;;;14.77;;
43650;SDS011;29247;50.944;5.382;2022-12-18T15:36:19;31.40;;;14.88;;
43650;SDS011;29247;50.944;5.382;2022-12-18T15:38:47;31.65;;;14.82;;
43650;SDS011;29247;50.944;5.382;2022-12-18T15:41:17;36.70;;;16.00;;
43650;SDS011;29247;50.944;5.382;2022-12-18T15:43:44;30.50;;;14.63;;
43650;SDS011;29247;50.944;5.382;2022-12-18T15:46:13;28.85;;;13.13;;
43650;SDS011;29247;50.944;5.382;2022-12-18T15:48:52;34.53;;;15.73;;
43650;SDS011;29247;50.944;5.382;2022-12-18T15:51:26;27.95;;;13.60;;
43650;SDS011;29247;50.944;5.382;2022-12-18T15:53:54;30.23;;;14.32;;
43650;SDS011;29247;50.944;5.382;2022-12-18T15:56:23;33.33;;;15.02;;
43650;SDS011;29247;50.944;5.382;2022-12-18T15:59:10;29.38;;;14.52;;
43650;SDS011;29247;50.944;5.382;2022-12-18T16:01:40;28.85;;;15.20;;
43650;SDS011;29247;50.944;5.382;2022-12-18T16:04:13;24.87;;;13.40;;
43650;SDS011;29247;50.944;5.382;2022-12-18T16:06:40;28.80;;;14.43;;
43650;SDS011;29247;50.944;5.382;2022-12-18T16:09:06;34.42;;;15.55;;
43650;SDS011;29247;50.944;5.382;2022-12-18T16:11:33;33.97;;;15.00;;
43650;SDS011;29247;50.944;5.382;2022-12-18T16:14:17;36.17;;;15.05;;
43650;SDS011;29247;50.944;5.382;2022-12-18T16:16:52;30.90;;;15.90;;
43650;SDS011;29247;50.944;5.382;2022-12-18T16:19:21;27.15;;;14.15;;
43650;SDS011;29247;50.944;5.382;2022-12-18T16:21:47;31.05;;;14.93;;
43650;SDS011;29247;50.944;5.382;2022-12-18T16:24:16;26.38;;;13.48;;
43650;SDS011;29247;50.944;5.382;2022-12-18T16:26:45;25.98;;;14.30;;
43650;SDS011;29247;50.944;5.382;2022-12-18T16:29:14;22.35;;;9.68;;
43650;SDS011;29247;50.944;5.382;2022-12-18T16:31:42;30.30;;;14.50;;
43650;SDS011;29247;50.944;5.382;2022-12-18T16:34:18;29.25;;;13.95;;
43650;SDS011;29247;50.944;5.382;2022-12-18T16:36:49;28.80;;;13.73;;
43650;SDS011;29247;50.944;5.382;2022-12-18T16:39:18;26.60;;;14.32;;
43650;SDS011;29247;50.944;5.382;2022-12-18T16:41:44;28.13;;;13.73;;